Fairfield, Texas
Current Conditions -  °F | °C
As of 3:55 PM on Wednesday 28 Jan 2015 (Local Time) from KLXY Reporting Station
Clear Clear  
Wind Chill: 79°   Ceiling: Unl
Heat Index: 79°   Visibility: 10mi
Dew Point: 42°   Wind: 14mph
Humidity: 27%   Direction: 190°S
Pressure: 30.04"   Gusts: NA
Location:  31.72°N, 96.17°W
Report Text: KLXY 282155Z AUTO 19012KT 10SM CLR 26/06 A3004 RMK AO2 T02600057
Loading
Personal Weather Stations






























Interactive Weather Map New forecast layout! Learn more

10-Day Weather Forecast

Advertisements
Track Severe Weather on mobile